sensor_id;sensor_type;location;lat;lon;timestamp;P1;durP1;ratioP1;P2;durP2;ratioP2
21833;SDS011;11079;51.092;3.458;2023-03-03T00:00:58;40.80;;;21.27;;
21833;SDS011;11079;51.092;3.458;2023-03-03T00:03:24;42.97;;;22.53;;
21833;SDS011;11079;51.092;3.458;2023-03-03T00:05:51;41.43;;;21.13;;
21833;SDS011;11079;51.092;3.458;2023-03-03T00:08:18;46.97;;;22.23;;
21833;SDS011;11079;51.092;3.458;2023-03-03T00:10:44;42.07;;;20.97;;
21833;SDS011;11079;51.092;3.458;2023-03-03T00:13:18;42.27;;;21.67;;
21833;SDS011;11079;51.092;3.458;2023-03-03T00:15:46;46.47;;;22.00;;
21833;SDS011;11079;51.092;3.458;2023-03-03T00:18:16;45.93;;;22.23;;
21833;SDS011;11079;51.092;3.458;2023-03-03T00:20:53;46.53;;;22.37;;
21833;SDS011;11079;51.092;3.458;2023-03-03T00:23:34;46.90;;;23.30;;
21833;SDS011;11079;51.092;3.458;2023-03-03T00:26:03;45.97;;;23.23;;
21833;SDS011;11079;51.092;3.458;2023-03-03T00:28:51;45.13;;;23.07;;
21833;SDS011;11079;51.092;3.458;2023-03-03T00:31:19;46.83;;;22.63;;
21833;SDS011;11079;51.092;3.458;2023-03-03T00:33:50;47.80;;;22.73;;
21833;SDS011;11079;51.092;3.458;2023-03-03T00:41:56;46.13;;;22.20;;
21833;SDS011;11079;51.092;3.458;2023-03-03T00:47:25;45.73;;;23.63;;
21833;SDS011;11079;51.092;3.458;2023-03-03T00:49:52;46.30;;;23.07;;
21833;SDS011;11079;51.092;3.458;2023-03-03T00:52:27;48.67;;;23.53;;
21833;SDS011;11079;51.092;3.458;2023-03-03T00:54:53;47.43;;;24.50;;
21833;SDS011;11079;51.092;3.458;2023-03-03T00:57:19;54.13;;;24.10;;
21833;SDS011;11079;51.092;3.458;2023-03-03T00:59:44;51.47;;;25.57;;
21833;SDS011;11079;51.092;3.458;2023-03-03T01:02:10;46.90;;;24.37;;
21833;SDS011;11079;51.092;3.458;2023-03-03T01:04:36;51.10;;;25.10;;
21833;SDS011;11079;51.092;3.458;2023-03-03T01:07:01;50.37;;;23.87;;
21833;SDS011;11079;51.092;3.458;2023-03-03T01:09:27;53.03;;;25.43;;
21833;SDS011;11079;51.092;3.458;2023-03-03T01:11:53;51.17;;;26.67;;
21833;SDS011;11079;51.092;3.458;2023-03-03T01:14:19;53.53;;;25.80;;
21833;SDS011;11079;51.092;3.458;2023-03-03T01:16:45;52.67;;;27.93;;
21833;SDS011;11079;51.092;3.458;2023-03-03T01:19:10;57.90;;;27.07;;
21833;SDS011;11079;51.092;3.458;2023-03-03T01:21:36;50.43;;;25.63;;
21833;SDS011;11079;51.092;3.458;2023-03-03T01:24:02;50.03;;;25.40;;
21833;SDS011;11079;51.092;3.458;2023-03-03T01:26:28;52.20;;;26.43;;
21833;SDS011;11079;51.092;3.458;2023-03-03T01:28:55;50.43;;;25.87;;
21833;SDS011;11079;51.092;3.458;2023-03-03T01:31:21;52.27;;;25.03;;
21833;SDS011;11079;51.092;3.458;2023-03-03T01:33:46;53.47;;;25.90;;
21833;SDS011;11079;51.092;3.458;2023-03-03T01:36:12;53.40;;;25.17;;
21833;SDS011;11079;51.092;3.458;2023-03-03T01:38:38;50.60;;;25.30;;
21833;SDS011;11079;51.092;3.458;2023-03-03T01:41:04;54.47;;;26.00;;
21833;SDS011;11079;51.092;3.458;2023-03-03T01:43:31;51.90;;;25.20;;
21833;SDS011;11079;51.092;3.458;2023-03-03T01:48:41;49.70;;;24.23;;
21833;SDS011;11079;51.092;3.458;2023-03-03T01:51:20;56.87;;;26.43;;
21833;SDS011;11079;51.092;3.458;2023-03-03T01:53:53;55.07;;;27.23;;
21833;SDS011;11079;51.092;3.458;2023-03-03T01:56:33;59.07;;;27.80;;
21833;SDS011;11079;51.092;3.458;2023-03-03T01:59:00;56.73;;;26.57;;
21833;SDS011;11079;51.092;3.458;2023-03-03T02:01:31;53.70;;;25.50;;
21833;SDS011;11079;51.092;3.458;2023-03-03T02:03:58;52.67;;;24.93;;
21833;SDS011;11079;51.092;3.458;2023-03-03T02:06:29;59.70;;;27.07;;
21833;SDS011;11079;51.092;3.458;2023-03-03T02:11:41;50.30;;;24.83;;
21833;SDS011;11079;51.092;3.458;2023-03-03T02:14:09;56.30;;;26.40;;
21833;SDS011;11079;51.092;3.458;2023-03-03T02:16:36;53.27;;;25.97;;
21833;SDS011;11079;51.092;3.458;2023-03-03T02:19:03;47.77;;;24.20;;
21833;SDS011;11079;51.092;3.458;2023-03-03T02:21:30;50.63;;;24.93;;
21833;SDS011;11079;51.092;3.458;2023-03-03T02:26:25;55.20;;;26.57;;
21833;SDS011;11079;51.092;3.458;2023-03-03T02:28:52;56.43;;;26.47;;
21833;SDS011;11079;51.092;3.458;2023-03-03T02:31:20;53.93;;;25.97;;
21833;SDS011;11079;51.092;3.458;2023-03-03T02:33:48;45.40;;;23.60;;
21833;SDS011;11079;51.092;3.458;2023-03-03T02:36:16;48.87;;;24.50;;
21833;SDS011;11079;51.092;3.458;2023-03-03T02:44:01;45.10;;;24.13;;
21833;SDS011;11079;51.092;3.458;2023-03-03T02:46:31;48.67;;;24.07;;
21833;SDS011;11079;51.092;3.458;2023-03-03T02:49:00;52.23;;;24.97;;
21833;SDS011;11079;51.092;3.458;2023-03-03T02:51:26;59.13;;;26.07;;
21833;SDS011;11079;51.092;3.458;2023-03-03T02:53:51;51.60;;;24.33;;
21833;SDS011;11079;51.092;3.458;2023-03-03T02:56:17;54.10;;;25.33;;
21833;SDS011;11079;51.092;3.458;2023-03-03T02:58:43;61.00;;;25.87;;
21833;SDS011;11079;51.092;3.458;2023-03-03T03:01:09;50.50;;;25.43;;
21833;SDS011;11079;51.092;3.458;2023-03-03T03:03:34;49.07;;;23.63;;
21833;SDS011;11079;51.092;3.458;2023-03-03T03:06:00;49.37;;;24.23;;
21833;SDS011;11079;51.092;3.458;2023-03-03T03:08:26;51.37;;;24.30;;
21833;SDS011;11079;51.092;3.458;2023-03-03T03:10:52;48.57;;;24.27;;
21833;SDS011;11079;51.092;3.458;2023-03-03T03:13:17;48.07;;;24.20;;
21833;SDS011;11079;51.092;3.458;2023-03-03T03:15:46;49.57;;;23.93;;
21833;SDS011;11079;51.092;3.458;2023-03-03T03:18:12;51.43;;;24.03;;
21833;SDS011;11079;51.092;3.458;2023-03-03T03:20:39;47.57;;;23.77;;
21833;SDS011;11079;51.092;3.458;2023-03-03T03:23:05;46.27;;;23.53;;
21833;SDS011;11079;51.092;3.458;2023-03-03T03:25:32;41.97;;;22.13;;
21833;SDS011;11079;51.092;3.458;2023-03-03T03:27:57;42.40;;;21.77;;
21833;SDS011;11079;51.092;3.458;2023-03-03T03:30:23;47.50;;;23.27;;
21833;SDS011;11079;51.092;3.458;2023-03-03T03:32:49;49.07;;;24.13;;
21833;SDS011;11079;51.092;3.458;2023-03-03T03:35:14;49.93;;;24.07;;
21833;SDS011;11079;51.092;3.458;2023-03-03T03:37:41;46.07;;;23.07;;
21833;SDS011;11079;51.092;3.458;2023-03-03T03:40:08;47.73;;;22.83;;
21833;SDS011;11079;51.092;3.458;2023-03-03T03:42:35;47.97;;;23.17;;
21833;SDS011;11079;51.092;3.458;2023-03-03T03:45:01;47.80;;;22.80;;
21833;SDS011;11079;51.092;3.458;2023-03-03T03:47:27;45.20;;;21.40;;
21833;SDS011;11079;51.092;3.458;2023-03-03T03:49:53;42.93;;;23.37;;
21833;SDS011;11079;51.092;3.458;2023-03-03T03:52:18;40.23;;;21.50;;
21833;SDS011;11079;51.092;3.458;2023-03-03T03:54:45;48.97;;;22.63;;
21833;SDS011;11079;51.092;3.458;2023-03-03T03:57:11;39.53;;;21.40;;
21833;SDS011;11079;51.092;3.458;2023-03-03T03:59:36;42.87;;;22.63;;
21833;SDS011;11079;51.092;3.458;2023-03-03T04:02:02;45.23;;;24.20;;
21833;SDS011;11079;51.092;3.458;2023-03-03T04:04:28;51.10;;;24.00;;
21833;SDS011;11079;51.092;3.458;2023-03-03T04:06:54;40.37;;;21.53;;
21833;SDS011;11079;51.092;3.458;2023-03-03T04:09:20;43.50;;;22.27;;
21833;SDS011;11079;51.092;3.458;2023-03-03T04:11:45;40.23;;;23.43;;
21833;SDS011;11079;51.092;3.458;2023-03-03T04:14:11;45.63;;;21.67;;
21833;SDS011;11079;51.092;3.458;2023-03-03T04:16:37;42.97;;;22.17;;
21833;SDS011;11079;51.092;3.458;2023-03-03T04:19:04;39.27;;;22.33;;
21833;SDS011;11079;51.092;3.458;2023-03-03T04:21:29;39.13;;;22.43;;
21833;SDS011;11079;51.092;3.458;2023-03-03T04:23:55;42.87;;;22.80;;
21833;SDS011;11079;51.092;3.458;2023-03-03T04:26:21;41.73;;;23.77;;
21833;SDS011;11079;51.092;3.458;2023-03-03T04:28:47;45.30;;;23.43;;
21833;SDS011;11079;51.092;3.458;2023-03-03T04:31:13;51.73;;;23.83;;
21833;SDS011;11079;51.092;3.458;2023-03-03T04:33:38;44.00;;;23.87;;
21833;SDS011;11079;51.092;3.458;2023-03-03T04:36:04;41.27;;;22.60;;
21833;SDS011;11079;51.092;3.458;2023-03-03T04:38:30;44.57;;;22.67;;
21833;SDS011;11079;51.092;3.458;2023-03-03T04:40:56;42.83;;;22.60;;
21833;SDS011;11079;51.092;3.458;2023-03-03T04:43:21;43.87;;;24.13;;
21833;SDS011;11079;51.092;3.458;2023-03-03T04:45:47;50.00;;;25.17;;
21833;SDS011;11079;51.092;3.458;2023-03-03T04:48:13;42.57;;;23.07;;
21833;SDS011;11079;51.092;3.458;2023-03-03T04:50:38;48.83;;;23.23;;
21833;SDS011;11079;51.092;3.458;2023-03-03T04:53:06;38.73;;;21.13;;
21833;SDS011;11079;51.092;3.458;2023-03-03T04:55:31;46.27;;;22.33;;
21833;SDS011;11079;51.092;3.458;2023-03-03T04:57:59;46.17;;;23.07;;
21833;SDS011;11079;51.092;3.458;2023-03-03T05:00:25;42.83;;;21.13;;
21833;SDS011;11079;51.092;3.458;2023-03-03T05:02:51;39.33;;;21.93;;
21833;SDS011;11079;51.092;3.458;2023-03-03T05:05:17;44.17;;;21.43;;
21833;SDS011;11079;51.092;3.458;2023-03-03T05:07:43;41.43;;;21.80;;
21833;SDS011;11079;51.092;3.458;2023-03-03T05:10:08;38.10;;;21.47;;
21833;SDS011;11079;51.092;3.458;2023-03-03T05:12:35;43.93;;;22.23;;
21833;SDS011;11079;51.092;3.458;2023-03-03T05:15:00;37.83;;;21.87;;
21833;SDS011;11079;51.092;3.458;2023-03-03T05:17:28;42.03;;;21.87;;
21833;SDS011;11079;51.092;3.458;2023-03-03T05:19:54;39.47;;;21.97;;
21833;SDS011;11079;51.092;3.458;2023-03-03T05:22:21;39.33;;;22.53;;
21833;SDS011;11079;51.092;3.458;2023-03-03T05:24:48;41.07;;;23.13;;
21833;SDS011;11079;51.092;3.458;2023-03-03T05:27:14;37.87;;;21.67;;
21833;SDS011;11079;51.092;3.458;2023-03-03T05:29:40;41.80;;;21.03;;
21833;SDS011;11079;51.092;3.458;2023-03-03T05:32:10;41.23;;;21.30;;
21833;SDS011;11079;51.092;3.458;2023-03-03T05:34:39;38.40;;;21.40;;
21833;SDS011;11079;51.092;3.458;2023-03-03T05:37:08;34.53;;;21.33;;
21833;SDS011;11079;51.092;3.458;2023-03-03T05:39:34;40.53;;;20.77;;
21833;SDS011;11079;51.092;3.458;2023-03-03T05:41:59;40.60;;;21.47;;
21833;SDS011;11079;51.092;3.458;2023-03-03T05:44:26;39.47;;;21.20;;
21833;SDS011;11079;51.092;3.458;2023-03-03T05:46:51;32.43;;;19.77;;
21833;SDS011;11079;51.092;3.458;2023-03-03T05:49:17;33.07;;;19.20;;
21833;SDS011;11079;51.092;3.458;2023-03-03T05:51:48;31.93;;;18.90;;
21833;SDS011;11079;51.092;3.458;2023-03-03T05:54:14;35.17;;;19.70;;
21833;SDS011;11079;51.092;3.458;2023-03-03T05:56:39;34.13;;;19.10;;
21833;SDS011;11079;51.092;3.458;2023-03-03T05:59:05;30.87;;;18.33;;
21833;SDS011;11079;51.092;3.458;2023-03-03T06:01:31;33.13;;;18.73;;
21833;SDS011;11079;51.092;3.458;2023-03-03T06:03:57;33.73;;;18.80;;
21833;SDS011;11079;51.092;3.458;2023-03-03T06:06:22;29.13;;;17.37;;
21833;SDS011;11079;51.092;3.458;2023-03-03T06:08:48;28.07;;;17.57;;
21833;SDS011;11079;51.092;3.458;2023-03-03T06:11:14;29.90;;;17.77;;
21833;SDS011;11079;51.092;3.458;2023-03-03T06:13:40;26.77;;;16.43;;
21833;SDS011;11079;51.092;3.458;2023-03-03T06:16:07;27.80;;;17.17;;
21833;SDS011;11079;51.092;3.458;2023-03-03T06:18:33;27.03;;;16.20;;
21833;SDS011;11079;51.092;3.458;2023-03-03T06:20:59;27.20;;;16.20;;
21833;SDS011;11079;51.092;3.458;2023-03-03T06:23:24;24.73;;;15.93;;
21833;SDS011;11079;51.092;3.458;2023-03-03T06:25:50;23.97;;;16.07;;
21833;SDS011;11079;51.092;3.458;2023-03-03T06:28:17;28.23;;;16.43;;
21833;SDS011;11079;51.092;3.458;2023-03-03T06:30:43;28.53;;;16.97;;
21833;SDS011;11079;51.092;3.458;2023-03-03T06:33:08;26.87;;;16.83;;
21833;SDS011;11079;51.092;3.458;2023-03-03T06:35:34;25.50;;;16.60;;
21833;SDS011;11079;51.092;3.458;2023-03-03T06:38:00;24.53;;;16.10;;
21833;SDS011;11079;51.092;3.458;2023-03-03T06:40:26;25.90;;;15.60;;
21833;SDS011;11079;51.092;3.458;2023-03-03T06:42:52;28.23;;;16.03;;
21833;SDS011;11079;51.092;3.458;2023-03-03T06:45:18;22.40;;;15.40;;
21833;SDS011;11079;51.092;3.458;2023-03-03T06:47:43;29.10;;;15.97;;
21833;SDS011;11079;51.092;3.458;2023-03-03T06:50:11;35.03;;;17.10;;
21833;SDS011;11079;51.092;3.458;2023-03-03T06:52:37;21.47;;;15.63;;
21833;SDS011;11079;51.092;3.458;2023-03-03T06:55:10;27.13;;;16.33;;
21833;SDS011;11079;51.092;3.458;2023-03-03T06:57:39;30.80;;;17.50;;
21833;SDS011;11079;51.092;3.458;2023-03-03T07:02:51;30.50;;;17.57;;
21833;SDS011;11079;51.092;3.458;2023-03-03T07:05:23;34.67;;;18.97;;
21833;SDS011;11079;51.092;3.458;2023-03-03T07:07:56;28.83;;;18.93;;
21833;SDS011;11079;51.092;3.458;2023-03-03T07:10:24;37.17;;;20.77;;
21833;SDS011;11079;51.092;3.458;2023-03-03T07:12:53;38.67;;;22.83;;
21833;SDS011;11079;51.092;3.458;2023-03-03T07:15:33;35.60;;;21.50;;
21833;SDS011;11079;51.092;3.458;2023-03-03T07:50:36;33.03;;;18.17;;
21833;SDS011;11079;51.092;3.458;2023-03-03T10:18:09;22.50;;;12.27;;
21833;SDS011;11079;51.092;3.458;2023-03-03T10:21:27;19.37;;;11.40;;
21833;SDS011;11079;51.092;3.458;2023-03-03T10:27:34;21.67;;;12.17;;
21833;SDS011;11079;51.092;3.458;2023-03-03T11:07:32;19.60;;;9.80;;
21833;SDS011;11079;51.092;3.458;2023-03-03T11:15:40;12.43;;;7.93;;
21833;SDS011;11079;51.092;3.458;2023-03-03T11:27:26;16.85;;;9.52;;
21833;SDS011;11079;51.092;3.458;2023-03-03T11:30:38;13.85;;;8.18;;
21833;SDS011;11079;51.092;3.458;2023-03-03T11:56:38;15.57;;;9.23;;
21833;SDS011;11079;51.092;3.458;2023-03-03T12:02:02;10.68;;;7.05;;
21833;SDS011;11079;51.092;3.458;2023-03-03T12:09:14;8.93;;;5.88;;
21833;SDS011;11079;51.092;3.458;2023-03-03T12:14:19;7.28;;;4.82;;
21833;SDS011;11079;51.092;3.458;2023-03-03T13:39:57;5.43;;;3.60;;
21833;SDS011;11079;51.092;3.458;2023-03-03T13:43:14;7.40;;;3.63;;
21833;SDS011;11079;51.092;3.458;2023-03-03T13:52:14;6.20;;;3.67;;
21833;SDS011;11079;51.092;3.458;2023-03-03T14:07:54;7.40;;;3.83;;
21833;SDS011;11079;51.092;3.458;2023-03-03T14:11:28;7.38;;;4.32;;
21833;SDS011;11079;51.092;3.458;2023-03-03T14:13:59;5.00;;;3.42;;
21833;SDS011;11079;51.092;3.458;2023-03-03T14:19:27;6.80;;;3.65;;
21833;SDS011;11079;51.092;3.458;2023-03-03T14:22:17;5.90;;;3.75;;
21833;SDS011;11079;51.092;3.458;2023-03-03T14:25:06;5.35;;;3.58;;
21833;SDS011;11079;51.092;3.458;2023-03-03T14:27:39;5.82;;;3.72;;
21833;SDS011;11079;51.092;3.458;2023-03-03T14:33:00;7.53;;;4.63;;
21833;SDS011;11079;51.092;3.458;2023-03-03T14:35:36;7.03;;;4.45;;
21833;SDS011;11079;51.092;3.458;2023-03-03T14:38:05;8.50;;;5.40;;
21833;SDS011;11079;51.092;3.458;2023-03-03T14:40:38;7.28;;;5.13;;
21833;SDS011;11079;51.092;3.458;2023-03-03T14:45:49;5.68;;;4.72;;
21833;SDS011;11079;51.092;3.458;2023-03-03T14:48:25;7.25;;;4.82;;
21833;SDS011;11079;51.092;3.458;2023-03-03T14:53:40;8.55;;;5.88;;
21833;SDS011;11079;51.092;3.458;2023-03-03T14:56:16;8.55;;;6.18;;
21833;SDS011;11079;51.092;3.458;2023-03-03T14:58:48;6.35;;;5.40;;
21833;SDS011;11079;51.092;3.458;2023-03-03T15:06:49;6.30;;;5.70;;
21833;SDS011;11079;51.092;3.458;2023-03-03T15:09:24;6.47;;;5.43;;
21833;SDS011;11079;51.092;3.458;2023-03-03T15:11:55;6.97;;;5.07;;
21833;SDS011;11079;51.092;3.458;2023-03-03T15:14:36;6.25;;;4.90;;
21833;SDS011;11079;51.092;3.458;2023-03-03T15:25:04;7.70;;;5.95;;
21833;SDS011;11079;51.092;3.458;2023-03-03T15:28:08;7.53;;;6.57;;
21833;SDS011;11079;51.092;3.458;2023-03-03T15:31:02;8.60;;;7.60;;
21833;SDS011;11079;51.092;3.458;2023-03-03T15:36:40;8.52;;;7.72;;
21833;SDS011;11079;51.092;3.458;2023-03-03T15:41:55;9.13;;;7.85;;
21833;SDS011;11079;51.092;3.458;2023-03-03T15:56:22;8.80;;;7.90;;
21833;SDS011;11079;51.092;3.458;2023-03-03T15:59:23;9.57;;;8.25;;
21833;SDS011;11079;51.092;3.458;2023-03-03T16:05:03;7.22;;;5.30;;
21833;SDS011;11079;51.092;3.458;2023-03-03T16:07:50;7.43;;;4.40;;
21833;SDS011;11079;51.092;3.458;2023-03-03T16:10:38;5.43;;;3.20;;
21833;SDS011;11079;51.092;3.458;2023-03-03T16:13:42;7.07;;;3.50;;
21833;SDS011;11079;51.092;3.458;2023-03-03T16:16:33;4.03;;;3.20;;
21833;SDS011;11079;51.092;3.458;2023-03-03T16:24:41;3.50;;;2.63;;
21833;SDS011;11079;51.092;3.458;2023-03-03T16:39:35;3.40;;;2.10;;
21833;SDS011;11079;51.092;3.458;2023-03-03T16:42:26;6.78;;;2.40;;
21833;SDS011;11079;51.092;3.458;2023-03-03T16:45:00;9.95;;;3.80;;
21833;SDS011;11079;51.092;3.458;2023-03-03T16:53:14;3.15;;;2.75;;
21833;SDS011;11079;51.092;3.458;2023-03-03T17:29:43;45.47;;;26.35;;
21833;SDS011;11079;51.092;3.458;2023-03-03T17:44:01;4.75;;;3.63;;
21833;SDS011;11079;51.092;3.458;2023-03-03T17:46:58;4.90;;;4.10;;
21833;SDS011;11079;51.092;3.458;2023-03-03T17:52:21;6.18;;;3.80;;
21833;SDS011;11079;51.092;3.458;2023-03-03T17:55:03;8.13;;;5.45;;
21833;SDS011;11079;51.092;3.458;2023-03-03T18:00:48;14.85;;;10.32;;
21833;SDS011;11079;51.092;3.458;2023-03-03T18:06:51;4.65;;;4.18;;
21833;SDS011;11079;51.092;3.458;2023-03-03T18:20:31;6.75;;;5.10;;
21833;SDS011;11079;51.092;3.458;2023-03-03T18:23:18;9.27;;;5.75;;
21833;SDS011;11079;51.092;3.458;2023-03-03T18:25:56;5.88;;;4.68;;
21833;SDS011;11079;51.092;3.458;2023-03-03T18:28:46;5.75;;;3.53;;
21833;SDS011;11079;51.092;3.458;2023-03-03T18:31:25;4.00;;;3.33;;
21833;SDS011;11079;51.092;3.458;2023-03-03T18:38:57;2.88;;;2.45;;
21833;SDS011;11079;51.092;3.458;2023-03-03T18:41:29;4.10;;;1.90;;
21833;SDS011;11079;51.092;3.458;2023-03-03T18:46:53;3.83;;;2.28;;
21833;SDS011;11079;51.092;3.458;2023-03-03T18:52:30;6.57;;;3.08;;
21833;SDS011;11079;51.092;3.458;2023-03-03T18:55:02;5.47;;;2.63;;
21833;SDS011;11079;51.092;3.458;2023-03-03T18:57:29;7.65;;;5.43;;
21833;SDS011;11079;51.092;3.458;2023-03-03T19:00:15;16.35;;;8.70;;
21833;SDS011;11079;51.092;3.458;2023-03-03T19:02:51;4.57;;;3.17;;
21833;SDS011;11079;51.092;3.458;2023-03-03T19:05:20;7.60;;;4.60;;
21833;SDS011;11079;51.092;3.458;2023-03-03T19:07:49;6.43;;;4.13;;
21833;SDS011;11079;51.092;3.458;2023-03-03T19:12:50;5.93;;;4.57;;
21833;SDS011;11079;51.092;3.458;2023-03-03T19:17:56;5.25;;;3.65;;
21833;SDS011;11079;51.092;3.458;2023-03-03T19:20:36;7.78;;;5.25;;
21833;SDS011;11079;51.092;3.458;2023-03-03T19:23:04;4.13;;;3.65;;
21833;SDS011;11079;51.092;3.458;2023-03-03T19:25:35;4.47;;;2.88;;
21833;SDS011;11079;51.092;3.458;2023-03-03T19:36:05;2.42;;;2.17;;
21833;SDS011;11079;51.092;3.458;2023-03-03T19:46:59;2.60;;;1.70;;
21833;SDS011;11079;51.092;3.458;2023-03-03T20:00:31;6.60;;;2.35;;
21833;SDS011;11079;51.092;3.458;2023-03-03T20:06:20;5.72;;;3.25;;
21833;SDS011;11079;51.092;3.458;2023-03-03T20:09:02;11.73;;;4.00;;
21833;SDS011;11079;51.092;3.458;2023-03-03T20:25:59;7.10;;;3.33;;
21833;SDS011;11079;51.092;3.458;2023-03-03T20:31:36;5.75;;;2.83;;
21833;SDS011;11079;51.092;3.458;2023-03-03T20:34:30;6.07;;;2.22;;
21833;SDS011;11079;51.092;3.458;2023-03-03T20:43:15;8.77;;;3.38;;
21833;SDS011;11079;51.092;3.458;2023-03-03T20:46:25;6.95;;;3.05;;
21833;SDS011;11079;51.092;3.458;2023-03-03T20:51:42;9.60;;;2.70;;
21833;SDS011;11079;51.092;3.458;2023-03-03T20:54:50;5.72;;;2.45;;
21833;SDS011;11079;51.092;3.458;2023-03-03T20:57:38;4.78;;;1.92;;
21833;SDS011;11079;51.092;3.458;2023-03-03T21:00:31;6.30;;;2.33;;
21833;SDS011;11079;51.092;3.458;2023-03-03T21:03:07;4.78;;;2.28;;
21833;SDS011;11079;51.092;3.458;2023-03-03T21:05:37;7.13;;;2.88;;
21833;SDS011;11079;51.092;3.458;2023-03-03T21:08:20;11.40;;;2.60;;
21833;SDS011;11079;51.092;3.458;2023-03-03T21:11:38;7.28;;;1.92;;
21833;SDS011;11079;51.092;3.458;2023-03-03T21:14:15;7.97;;;3.50;;
21833;SDS011;11079;51.092;3.458;2023-03-03T21:16:47;5.47;;;2.22;;
21833;SDS011;11079;51.092;3.458;2023-03-03T21:19:30;12.55;;;2.53;;
21833;SDS011;11079;51.092;3.458;2023-03-03T21:21:57;7.80;;;2.38;;
21833;SDS011;11079;51.092;3.458;2023-03-03T21:30:11;14.30;;;3.63;;
21833;SDS011;11079;51.092;3.458;2023-03-03T21:32:43;7.28;;;2.17;;
21833;SDS011;11079;51.092;3.458;2023-03-03T21:35:11;6.93;;;2.22;;
21833;SDS011;11079;51.092;3.458;2023-03-03T21:37:49;11.02;;;2.30;;
21833;SDS011;11079;51.092;3.458;2023-03-03T21:40:24;6.22;;;2.20;;
21833;SDS011;11079;51.092;3.458;2023-03-03T21:42:53;9.88;;;2.72;;
21833;SDS011;11079;51.092;3.458;2023-03-03T21:45:20;12.20;;;2.17;;
21833;SDS011;11079;51.092;3.458;2023-03-03T21:47:47;6.43;;;2.58;;
21833;SDS011;11079;51.092;3.458;2023-03-03T21:50:14;15.80;;;2.80;;
21833;SDS011;11079;51.092;3.458;2023-03-03T21:52:40;7.50;;;2.53;;
21833;SDS011;11079;51.092;3.458;2023-03-03T21:55:06;8.85;;;2.55;;
21833;SDS011;11079;51.092;3.458;2023-03-03T21:57:32;15.02;;;2.92;;
21833;SDS011;11079;51.092;3.458;2023-03-03T21:59:59;8.40;;;2.97;;
21833;SDS011;11079;51.092;3.458;2023-03-03T22:02:34;9.40;;;2.47;;
21833;SDS011;11079;51.092;3.458;2023-03-03T22:05:02;9.07;;;2.63;;
21833;SDS011;11079;51.092;3.458;2023-03-03T22:07:31;10.65;;;2.38;;
21833;SDS011;11079;51.092;3.458;2023-03-03T22:09:59;8.93;;;2.22;;
21833;SDS011;11079;51.092;3.458;2023-03-03T22:12:25;12.07;;;3.13;;
21833;SDS011;11079;51.092;3.458;2023-03-03T22:14:50;11.55;;;3.05;;
21833;SDS011;11079;51.092;3.458;2023-03-03T22:17:16;12.82;;;3.33;;
21833;SDS011;11079;51.092;3.458;2023-03-03T22:19:42;13.40;;;3.05;;
21833;SDS011;11079;51.092;3.458;2023-03-03T22:22:07;13.88;;;2.72;;
21833;SDS011;11079;51.092;3.458;2023-03-03T22:24:33;15.27;;;2.60;;
21833;SDS011;11079;51.092;3.458;2023-03-03T22:26:58;9.63;;;3.08;;
21833;SDS011;11079;51.092;3.458;2023-03-03T22:29:24;12.57;;;2.90;;
21833;SDS011;11079;51.092;3.458;2023-03-03T22:31:50;6.95;;;2.60;;
21833;SDS011;11079;51.092;3.458;2023-03-03T22:34:16;12.10;;;4.03;;
21833;SDS011;11079;51.092;3.458;2023-03-03T22:36:41;16.65;;;3.65;;
21833;SDS011;11079;51.092;3.458;2023-03-03T22:39:07;13.52;;;4.07;;
21833;SDS011;11079;51.092;3.458;2023-03-03T22:41:33;12.65;;;3.10;;
21833;SDS011;11079;51.092;3.458;2023-03-03T22:43:58;10.00;;;2.95;;
21833;SDS011;11079;51.092;3.458;2023-03-03T22:46:24;11.32;;;3.10;;
21833;SDS011;11079;51.092;3.458;2023-03-03T22:48:50;12.43;;;3.00;;
21833;SDS011;11079;51.092;3.458;2023-03-03T22:51:15;8.77;;;2.50;;
21833;SDS011;11079;51.092;3.458;2023-03-03T22:53:42;11.02;;;2.50;;
21833;SDS011;11079;51.092;3.458;2023-03-03T22:56:07;12.98;;;2.65;;
21833;SDS011;11079;51.092;3.458;2023-03-03T22:58:33;15.35;;;3.10;;
21833;SDS011;11079;51.092;3.458;2023-03-03T23:00:59;13.65;;;3.45;;
21833;SDS011;11079;51.092;3.458;2023-03-03T23:03:26;10.75;;;2.90;;
21833;SDS011;11079;51.092;3.458;2023-03-03T23:05:52;14.52;;;2.88;;
21833;SDS011;11079;51.092;3.458;2023-03-03T23:08:17;10.68;;;2.83;;
21833;SDS011;11079;51.092;3.458;2023-03-03T23:10:44;9.45;;;2.28;;
21833;SDS011;11079;51.092;3.458;2023-03-03T23:13:11;11.30;;;2.60;;
21833;SDS011;11079;51.092;3.458;2023-03-03T23:15:37;12.73;;;2.80;;
21833;SDS011;11079;51.092;3.458;2023-03-03T23:18:02;9.75;;;2.85;;
21833;SDS011;11079;51.092;3.458;2023-03-03T23:20:29;12.88;;;3.22;;
21833;SDS011;11079;51.092;3.458;2023-03-03T23:22:55;11.05;;;2.65;;
21833;SDS011;11079;51.092;3.458;2023-03-03T23:25:21;9.00;;;2.58;;
21833;SDS011;11079;51.092;3.458;2023-03-03T23:27:47;12.25;;;2.60;;
21833;SDS011;11079;51.092;3.458;2023-03-03T23:30:14;13.32;;;3.05;;
21833;SDS011;11079;51.092;3.458;2023-03-03T23:32:40;8.10;;;2.90;;
21833;SDS011;11079;51.092;3.458;2023-03-03T23:35:07;10.63;;;3.03;;
21833;SDS011;11079;51.092;3.458;2023-03-03T23:37:32;9.95;;;2.47;;
21833;SDS011;11079;51.092;3.458;2023-03-03T23:39:58;8.80;;;3.05;;
21833;SDS011;11079;51.092;3.458;2023-03-03T23:42:24;8.05;;;2.35;;
21833;SDS011;11079;51.092;3.458;2023-03-03T23:44:51;17.52;;;3.70;;
21833;SDS011;11079;51.092;3.458;2023-03-03T23:47:17;10.48;;;2.53;;
21833;SDS011;11079;51.092;3.458;2023-03-03T23:49:43;15.23;;;4.03;;
21833;SDS011;11079;51.092;3.458;2023-03-03T23:52:09;17.50;;;2.83;;
21833;SDS011;11079;51.092;3.458;2023-03-03T23:54:34;15.02;;;3.50;;
21833;SDS011;11079;51.092;3.458;2023-03-03T23:57:00;10.70;;;3.03;;
21833;SDS011;11079;51.092;3.458;2023-03-03T23:59:25;14.98;;;2.63;;
